createdAt,value
2018-03-29T00:00:55.351Z,38.30
2018-03-29T00:01:58.588Z,37.30
2018-03-29T00:03:01.825Z,39.35
2018-03-29T00:04:04.291Z,40.12
2018-03-29T00:05:06.770Z,39.08
2018-03-29T00:06:10.387Z,39.40
2018-03-29T00:07:12.879Z,41.42
2018-03-29T00:08:15.382Z,39.50
2018-03-29T00:10:24.362Z,41.65
2018-03-29T00:11:26.863Z,40.40
2018-03-29T00:12:29.440Z,42.53
2018-03-29T00:13:31.915Z,42.65
2018-03-29T00:14:34.449Z,40.10
2018-03-29T00:15:36.932Z,40.35
2018-03-29T00:16:39.655Z,39.88
2018-03-29T00:17:42.210Z,39.70
2018-03-29T00:18:44.637Z,41.30
2018-03-29T00:19:47.887Z,42.60
2018-03-29T00:20:50.466Z,43.72
2018-03-29T00:21:52.957Z,43.60
2018-03-29T00:22:55.570Z,41.42
2018-03-29T00:23:58.039Z,44.50
2018-03-29T00:25:00.505Z,48.00
2018-03-29T00:26:03.773Z,41.83
2018-03-29T00:27:06.291Z,46.53
2018-03-29T00:28:08.765Z,43.63
2018-03-29T00:29:11.339Z,46.92
2018-03-29T00:30:13.971Z,43.75
2018-03-29T00:31:16.468Z,43.53
2018-03-29T00:32:19.030Z,42.03
2018-03-29T00:33:21.520Z,41.28
2018-03-29T00:34:23.991Z,43.15
2018-03-29T00:35:26.491Z,41.95
2018-03-29T00:36:29.788Z,40.63
2018-03-29T00:37:32.257Z,42.85
2018-03-29T00:38:35.496Z,42.65
2018-03-29T00:39:38.769Z,43.55
2018-03-29T00:40:41.240Z,41.63
2018-03-29T00:41:43.802Z,41.22
2018-03-29T00:42:46.263Z,41.45
2018-03-29T00:43:48.750Z,41.30
2018-03-29T00:44:51.251Z,42.30
2018-03-29T00:45:54.535Z,43.33
2018-03-29T00:46:57.032Z,42.25
2018-03-29T00:48:00.896Z,41.25
2018-03-29T00:49:04.143Z,44.05
2018-03-29T00:50:06.640Z,42.90
2018-03-29T00:51:09.106Z,41.58
2018-03-29T00:52:11.571Z,40.30
2018-03-29T00:53:26.634Z,41.17
2018-03-29T00:54:29.115Z,40.53
2018-03-29T00:55:32.389Z,37.97
2018-03-29T00:56:35.614Z,38.30
2018-03-29T00:57:38.855Z,40.12
2018-03-29T00:58:42.601Z,38.83
2018-03-29T00:59:45.099Z,37.72
2018-03-29T01:00:47.563Z,39.33
2018-03-29T01:01:50.807Z,38.25
2018-03-29T01:02:54.057Z,40.25
2018-03-29T01:03:57.308Z,38.17
2018-03-29T01:04:59.791Z,40.50
2018-03-29T01:06:02.279Z,40.65
2018-03-29T01:07:04.738Z,37.45
2018-03-29T01:08:07.319Z,39.15
2018-03-29T01:09:09.805Z,38.72
2018-03-29T01:10:12.271Z,38.55
2018-03-29T01:11:14.758Z,42.40
2018-03-29T01:12:18.046Z,39.85
2018-03-29T01:13:20.538Z,38.88
2018-03-29T01:14:23.835Z,39.53
2018-03-29T01:15:26.327Z,41.22
2018-03-29T01:16:28.807Z,40.45
2018-03-29T01:17:31.307Z,41.90
2018-03-29T01:18:33.811Z,39.40
2018-03-29T01:19:36.273Z,40.40
2018-03-29T01:20:38.852Z,42.38
2018-03-29T01:21:41.310Z,42.38
2018-03-29T01:22:43.816Z,38.85
2018-03-29T01:23:46.298Z,38.92
2018-03-29T01:24:48.854Z,38.90
2018-03-29T01:25:51.331Z,39.30
2018-03-29T01:26:53.834Z,40.78
2018-03-29T01:27:56.313Z,39.08
2018-03-29T01:28:59.572Z,38.78
2018-03-29T01:30:02.076Z,39.42
2018-03-29T01:31:05.348Z,38.83
2018-03-29T01:32:07.818Z,38.60
2018-03-29T01:33:10.306Z,40.85
2018-03-29T01:34:12.765Z,42.05
2018-03-29T01:35:15.263Z,40.30
2018-03-29T01:36:18.202Z,41.92
2018-03-29T01:37:20.693Z,39.63
2018-03-29T01:38:23.937Z,38.80
2018-03-29T01:39:26.409Z,42.78
2018-03-29T01:40:28.880Z,40.92
2018-03-29T01:41:31.414Z,40.95
2018-03-29T01:42:33.929Z,41.42
2018-03-29T01:43:37.164Z,41.30
2018-03-29T01:44:40.378Z,39.50
2018-03-29T01:45:42.856Z,40.17
2018-03-29T01:46:45.340Z,41.72
2018-03-29T01:47:47.882Z,39.15
2018-03-29T01:48:51.115Z,40.70
2018-03-29T01:49:53.599Z,38.53
2018-03-29T01:50:56.115Z,39.03
2018-03-29T01:51:58.691Z,39.72
2018-03-29T01:53:01.164Z,39.67
2018-03-29T01:54:03.640Z,39.00
2018-03-29T01:55:06.099Z,38.67
2018-03-29T01:56:08.622Z,41.40
2018-03-29T01:57:11.100Z,40.40
2018-03-29T01:58:13.571Z,39.78
2018-03-29T01:59:16.105Z,40.40
2018-03-29T02:00:18.643Z,41.05
2018-03-29T02:01:21.120Z,39.70
2018-03-29T02:02:23.707Z,41.70
2018-03-29T02:03:26.182Z,39.47
2018-03-29T02:04:29.440Z,40.10
2018-03-29T02:05:32.689Z,40.53
2018-03-29T02:06:35.178Z,40.15
2018-03-29T02:07:37.665Z,40.60
2018-03-29T02:08:40.141Z,38.58
2018-03-29T02:09:43.365Z,38.35
2018-03-29T02:10:45.848Z,40.17
2018-03-29T02:11:48.587Z,41.10
2018-03-29T02:12:51.349Z,37.95
2018-03-29T02:13:54.642Z,38.58
2018-03-29T02:14:57.110Z,40.50
2018-03-29T02:15:59.606Z,39.97
2018-03-29T02:17:02.062Z,38.05
2018-03-29T02:18:04.527Z,39.50
2018-03-29T02:19:07.006Z,37.80
2018-03-29T02:20:09.838Z,39.30
2018-03-29T02:21:12.285Z,38.28
2018-03-29T02:22:15.563Z,39.83
2018-03-29T02:23:18.087Z,39.63
2018-03-29T02:24:20.568Z,40.38
2018-03-29T02:25:23.073Z,40.30
2018-03-29T02:26:25.548Z,41.37
2018-03-29T02:27:28.778Z,42.53
2018-03-29T02:28:32.257Z,38.67
2018-03-29T02:29:34.752Z,40.25
2018-03-29T02:30:37.996Z,41.67
2018-03-29T02:31:40.457Z,40.75
2018-03-29T02:32:42.918Z,40.08
2018-03-29T02:33:45.413Z,38.38
2018-03-29T02:34:47.916Z,39.92
2018-03-29T02:35:50.390Z,37.83
2018-03-29T02:36:53.009Z,39.25
2018-03-29T02:37:55.485Z,42.00
2018-03-29T02:38:58.747Z,40.38
2018-03-29T02:40:01.221Z,47.20
2018-03-29T02:41:04.503Z,42.42
2018-03-29T02:42:06.996Z,70.78
2018-03-29T02:43:09.572Z,44.10
2018-03-29T02:44:12.819Z,50.95
2018-03-29T02:45:15.286Z,49.50
2018-03-29T02:46:17.766Z,50.05
2018-03-29T02:47:20.422Z,47.50
2018-03-29T02:48:23.003Z,44.40
2018-03-29T02:49:25.470Z,44.22
2018-03-29T02:50:27.969Z,43.00
2018-03-29T02:51:30.438Z,45.30
2018-03-29T02:52:32.919Z,46.90
2018-03-29T02:53:35.413Z,48.70
2018-03-29T02:54:38.705Z,46.65
2018-03-29T02:56:46.743Z,48.13
2018-03-29T02:57:49.229Z,47.58
2018-03-29T02:58:51.710Z,48.10
2018-03-29T02:59:54.191Z,45.47
2018-03-29T03:00:57.502Z,46.15
2018-03-29T03:02:00.740Z,46.90
2018-03-29T03:03:04.053Z,47.33
2018-03-29T03:04:06.583Z,47.25
2018-03-29T03:05:09.769Z,45.00
2018-03-29T03:06:13.069Z,45.45
2018-03-29T03:07:15.579Z,47.40
2018-03-29T03:08:18.038Z,48.97
2018-03-29T03:09:21.263Z,49.35
2018-03-29T03:10:23.745Z,46.67
2018-03-29T03:11:26.315Z,46.30
2018-03-29T03:12:28.804Z,47.35
2018-03-29T03:13:31.610Z,48.38
2018-03-29T03:14:34.096Z,47.33
2018-03-29T03:15:36.606Z,47.65
2018-03-29T03:16:39.086Z,48.95
2018-03-29T03:17:41.555Z,47.40
2018-03-29T03:18:44.041Z,45.65
2018-03-29T03:19:46.502Z,47.13
2018-03-29T03:20:49.074Z,48.00
2018-03-29T03:21:52.348Z,49.60
2018-03-29T03:22:54.883Z,47.50
2018-03-29T03:23:57.404Z,50.05
2018-03-29T03:24:59.877Z,47.70
2018-03-29T03:26:03.200Z,49.58
2018-03-29T03:27:05.675Z,48.75
2018-03-29T03:28:08.201Z,50.50
2018-03-29T03:29:10.684Z,47.00
2018-03-29T03:30:13.202Z,46.40
2018-03-29T03:31:15.711Z,45.63
2018-03-29T03:32:18.176Z,47.67
2018-03-29T03:33:21.462Z,46.75
2018-03-29T03:34:23.964Z,44.88
2018-03-29T03:35:27.213Z,45.17
2018-03-29T03:36:30.337Z,43.20
2018-03-29T03:37:33.598Z,41.00
2018-03-29T03:38:36.086Z,42.47
2018-03-29T03:39:38.554Z,42.70
2018-03-29T03:40:41.060Z,40.80
2018-03-29T03:41:43.671Z,39.35
2018-03-29T03:42:46.249Z,38.33
2018-03-29T03:43:48.763Z,36.10
2018-03-29T03:44:51.239Z,36.00
2018-03-29T03:45:55.229Z,36.90
2018-03-29T03:46:57.765Z,37.40
2018-03-29T03:48:00.238Z,36.97
2018-03-29T03:49:02.720Z,35.08
2018-03-29T03:50:05.243Z,37.35
2018-03-29T03:51:07.758Z,35.58
2018-03-29T03:52:10.274Z,36.63
2018-03-29T03:53:13.552Z,35.90
2018-03-29T03:54:16.018Z,33.30
2018-03-29T03:55:18.486Z,33.65
2018-03-29T03:56:21.070Z,35.22
2018-03-29T03:57:23.562Z,35.55
2018-03-29T03:58:26.088Z,32.15
2018-03-29T03:59:28.570Z,31.77
2018-03-29T04:00:31.824Z,26.90
2018-03-29T04:01:35.062Z,27.13
2018-03-29T04:02:37.533Z,27.83
2018-03-29T04:03:40.060Z,27.08
2018-03-29T04:04:42.518Z,24.45
2018-03-29T04:05:45.773Z,25.00
2018-03-29T04:06:49.000Z,24.63
2018-03-29T04:07:52.241Z,24.58
2018-03-29T04:08:54.746Z,24.15
2018-03-29T04:09:57.238Z,24.40
2018-03-29T04:10:59.718Z,24.35
2018-03-29T04:12:03.019Z,22.75
2018-03-29T04:13:05.475Z,23.62
2018-03-29T04:14:08.064Z,24.80
2018-03-29T04:15:10.575Z,23.25
2018-03-29T04:16:13.061Z,23.12
2018-03-29T04:17:15.526Z,21.73
2018-03-29T04:18:18.037Z,22.65
2018-03-29T04:19:20.510Z,23.15
2018-03-29T04:20:23.026Z,21.62
2018-03-29T04:21:25.516Z,22.23
2018-03-29T04:22:27.985Z,21.00
2018-03-29T04:23:30.438Z,20.88
2018-03-29T04:24:33.683Z,21.70
2018-03-29T04:25:36.980Z,21.27
2018-03-29T04:26:39.480Z,20.52
2018-03-29T04:27:41.978Z,20.60
2018-03-29T04:28:45.219Z,21.00
2018-03-29T04:29:48.464Z,21.50
2018-03-29T04:30:51.759Z,20.50
2018-03-29T04:31:54.232Z,21.05
2018-03-29T04:32:57.469Z,20.83
2018-03-29T04:33:59.937Z,27.23
2018-03-29T04:35:02.420Z,19.45
2018-03-29T04:36:04.917Z,21.10
2018-03-29T04:37:07.574Z,20.60
2018-03-29T04:38:10.066Z,19.52
2018-03-29T04:39:12.567Z,20.52
2018-03-29T04:40:15.062Z,19.95
2018-03-29T04:41:18.311Z,19.05
2018-03-29T04:42:20.946Z,21.12
2018-03-29T04:43:23.407Z,21.20
2018-03-29T04:44:25.906Z,19.48
2018-03-29T04:46:37.645Z,18.92
2018-03-29T04:47:40.868Z,18.87
2018-03-29T04:48:43.844Z,19.87
2018-03-29T04:49:46.402Z,19.85
2018-03-29T04:50:49.065Z,19.37
2018-03-29T04:51:52.269Z,20.23
2018-03-29T04:52:54.861Z,19.17
2018-03-29T04:53:57.365Z,18.20
2018-03-29T04:54:59.904Z,18.05
2018-03-29T04:56:02.377Z,19.00
2018-03-29T04:57:05.079Z,17.25
2018-03-29T04:58:07.691Z,18.62
2018-03-29T04:59:10.218Z,16.95
2018-03-29T05:00:12.804Z,18.50
2018-03-29T05:01:15.404Z,17.42
2018-03-29T05:02:18.680Z,17.80
2018-03-29T05:03:21.140Z,17.62
2018-03-29T05:04:23.621Z,16.80
2018-03-29T05:05:26.108Z,17.20
2018-03-29T05:06:29.355Z,17.30
2018-03-29T05:07:31.887Z,16.48
2018-03-29T05:08:34.331Z,16.05
2018-03-29T05:09:36.825Z,16.85
2018-03-29T05:10:39.326Z,16.55
2018-03-29T05:11:43.483Z,15.15
2018-03-29T05:12:46.048Z,15.98
2018-03-29T05:13:49.331Z,15.57
2018-03-29T05:14:51.835Z,15.40
2018-03-29T05:15:54.359Z,16.50
2018-03-29T05:16:56.884Z,15.18
2018-03-29T05:17:59.378Z,15.88
2018-03-29T05:19:01.942Z,15.75
2018-03-29T05:20:04.499Z,14.25
2018-03-29T05:21:07.059Z,14.95
2018-03-29T05:22:09.649Z,13.93
2018-03-29T05:23:12.190Z,12.20
2018-03-29T05:24:14.667Z,13.48
2018-03-29T05:25:17.175Z,13.65
2018-03-29T05:26:20.401Z,12.52
2018-03-29T05:27:25.733Z,11.25
2018-03-29T05:28:28.204Z,11.52
2018-03-29T05:29:30.715Z,10.45
2018-03-29T05:30:33.202Z,11.55
2018-03-29T05:31:35.702Z,10.65
2018-03-29T05:32:39.076Z,11.90
2018-03-29T05:33:41.642Z,11.73
2018-03-29T05:34:44.122Z,10.77
2018-03-29T05:35:47.422Z,10.20
2018-03-29T05:36:49.927Z,10.98
2018-03-29T05:37:52.384Z,11.23
2018-03-29T05:38:54.845Z,11.18
2018-03-29T05:39:57.306Z,10.00
2018-03-29T05:41:00.102Z,11.23
2018-03-29T05:42:02.588Z,10.68
2018-03-29T05:43:05.060Z,11.20
2018-03-29T05:44:07.573Z,10.45
2018-03-29T05:45:10.104Z,10.10
2018-03-29T05:46:12.645Z,10.55
2018-03-29T05:47:15.120Z,10.30
2018-03-29T05:48:17.584Z,11.20
2018-03-29T05:49:20.051Z,10.65
2018-03-29T05:50:22.606Z,10.27
2018-03-29T05:51:25.876Z,9.13
2018-03-29T05:52:28.410Z,10.68
2018-03-29T05:53:31.237Z,9.60
2018-03-29T05:54:33.757Z,9.23
2018-03-29T05:55:36.583Z,8.77
2018-03-29T05:56:39.838Z,8.07
2018-03-29T05:57:42.492Z,8.60
2018-03-29T05:58:44.930Z,7.95
2018-03-29T05:59:47.460Z,8.13
2018-03-29T06:00:49.992Z,8.25
2018-03-29T06:01:52.570Z,7.90
2018-03-29T06:02:55.036Z,7.55
2018-03-29T06:03:57.658Z,7.87
2018-03-29T06:05:00.139Z,7.10
2018-03-29T06:06:02.618Z,6.70
2018-03-29T06:07:05.134Z,7.05
2018-03-29T06:08:07.641Z,7.12
2018-03-29T06:09:10.340Z,6.03
2018-03-29T06:10:12.829Z,6.37
2018-03-29T06:11:16.116Z,5.68
2018-03-29T06:12:19.169Z,5.37
2018-03-29T06:13:21.638Z,5.80
2018-03-29T06:14:24.103Z,5.62
2018-03-29T06:15:33.057Z,5.62
2018-03-29T06:16:41.491Z,5.37
2018-03-29T06:17:44.006Z,5.30
2018-03-29T06:18:46.470Z,5.57
2018-03-29T06:19:49.705Z,4.60
2018-03-29T06:20:52.184Z,5.15
2018-03-29T06:21:54.721Z,5.10
2018-03-29T06:22:57.185Z,5.40
2018-03-29T06:24:00.426Z,5.43
2018-03-29T06:25:03.665Z,5.43
2018-03-29T06:26:06.205Z,5.20
2018-03-29T06:27:08.770Z,5.80
2018-03-29T06:28:11.242Z,5.68
2018-03-29T06:29:14.491Z,4.65
2018-03-29T06:30:16.980Z,4.90
2018-03-29T06:31:19.471Z,5.07
2018-03-29T06:32:21.979Z,4.43
2018-03-29T06:33:24.521Z,5.10
2018-03-29T06:34:26.986Z,5.32
2018-03-29T06:35:29.479Z,4.70
2018-03-29T06:36:31.978Z,5.45
2018-03-29T06:37:34.539Z,4.70
2018-03-29T06:38:37.050Z,4.75
2018-03-29T06:39:39.510Z,4.65
2018-03-29T06:40:42.003Z,4.60
2018-03-29T06:41:44.462Z,4.10
2018-03-29T06:42:46.985Z,4.70
2018-03-29T06:43:49.469Z,4.15
2018-03-29T06:44:51.923Z,4.28
2018-03-29T06:45:54.478Z,4.70
2018-03-29T06:46:56.973Z,6.35
2018-03-29T06:47:59.874Z,7.12
2018-03-29T06:49:02.391Z,5.10
2018-03-29T06:50:05.015Z,43.22
2018-03-29T06:51:08.249Z,5.15
2018-03-29T06:52:11.474Z,7.43
2018-03-29T06:53:14.058Z,5.30
2018-03-29T06:54:16.526Z,8.20
2018-03-29T06:55:19.102Z,8.07
2018-03-29T06:56:21.592Z,8.00
2018-03-29T06:57:24.869Z,4.53
2018-03-29T06:58:27.338Z,5.15
2018-03-29T06:59:29.857Z,9.27
2018-03-29T07:00:32.346Z,5.82
2018-03-29T07:01:34.816Z,5.35
2018-03-29T07:02:37.287Z,4.85
2018-03-29T07:03:39.771Z,4.07
2018-03-29T07:04:42.258Z,5.65
2018-03-29T07:05:44.740Z,4.90
2018-03-29T07:06:47.961Z,4.00
2018-03-29T07:07:50.425Z,6.62
2018-03-29T07:08:52.995Z,4.80
2018-03-29T07:09:55.481Z,7.57
2018-03-29T07:10:57.977Z,6.62
2018-03-29T07:12:01.222Z,10.52
2018-03-29T07:13:04.525Z,5.65
2018-03-29T07:14:07.704Z,14.68
2018-03-29T07:15:10.948Z,7.53
2018-03-29T07:16:13.424Z,7.95
2018-03-29T07:17:16.026Z,3.80
2018-03-29T07:18:18.534Z,5.65
2018-03-29T07:19:21.759Z,4.28
2018-03-29T07:20:24.212Z,3.53
2018-03-29T07:21:26.677Z,4.12
2018-03-29T07:22:29.434Z,3.55
2018-03-29T07:23:31.918Z,5.35
2018-03-29T07:24:34.383Z,3.40
2018-03-29T07:25:36.841Z,3.40
2018-03-29T07:26:39.314Z,5.65
2018-03-29T07:27:41.850Z,3.58
2018-03-29T07:28:44.318Z,15.38
2018-03-29T07:29:46.815Z,13.13
2018-03-29T07:30:49.380Z,20.02
2018-03-29T07:31:51.898Z,7.93
2018-03-29T07:32:54.373Z,3.78
2018-03-29T07:33:57.800Z,5.30
2018-03-29T07:35:00.755Z,3.35
2018-03-29T07:36:04.121Z,7.30
2018-03-29T07:37:06.591Z,3.53
2018-03-29T07:38:09.054Z,5.82
2018-03-29T07:39:11.521Z,4.30
2018-03-29T07:40:13.985Z,3.28
2018-03-29T07:41:16.488Z,3.45
2018-03-29T07:42:18.969Z,3.40
2018-03-29T07:43:21.426Z,7.55
2018-03-29T07:44:23.899Z,4.12
2018-03-29T07:45:26.691Z,22.40
2018-03-29T07:46:29.168Z,6.30
2018-03-29T07:47:31.646Z,3.50
2018-03-29T07:48:34.120Z,2.67
2018-03-29T07:49:36.604Z,3.00
2018-03-29T07:50:39.065Z,3.78
2018-03-29T07:51:41.529Z,2.92
2018-03-29T07:52:44.061Z,2.90
2018-03-29T07:53:46.528Z,2.90
2018-03-29T07:54:49.764Z,3.05
2018-03-29T07:55:52.243Z,4.50
2018-03-29T07:56:54.705Z,2.60
2018-03-29T07:57:57.204Z,5.55
2018-03-29T07:58:59.683Z,28.05
2018-03-29T08:00:02.181Z,6.12
2018-03-29T08:01:04.722Z,7.15
2018-03-29T08:02:07.168Z,4.72
2018-03-29T08:03:09.652Z,19.10
2018-03-29T08:04:12.140Z,2.90
2018-03-29T08:05:15.389Z,3.50
2018-03-29T08:06:17.907Z,2.65
2018-03-29T08:07:20.721Z,3.08
2018-03-29T08:08:23.970Z,3.05
2018-03-29T08:09:27.230Z,10.95
2018-03-29T08:10:29.718Z,4.95
2018-03-29T08:11:32.245Z,2.87
2018-03-29T08:12:35.235Z,2.90
2018-03-29T08:13:37.741Z,3.55
2018-03-29T08:14:40.324Z,2.80
2018-03-29T08:15:42.828Z,3.40
2018-03-29T08:16:45.302Z,2.75
2018-03-29T08:17:48.532Z,2.80
2018-03-29T08:18:51.034Z,5.55
2018-03-29T08:19:53.542Z,2.65
2018-03-29T08:20:56.040Z,5.53
2018-03-29T08:21:58.588Z,3.28
2018-03-29T08:23:01.077Z,2.70
2018-03-29T08:24:04.310Z,4.37
2018-03-29T08:25:07.555Z,3.03
2018-03-29T08:26:10.775Z,6.00
2018-03-29T08:27:14.024Z,3.42
2018-03-29T08:28:16.567Z,10.75
2018-03-29T08:29:19.824Z,4.55
2018-03-29T08:30:23.067Z,7.28
2018-03-29T08:31:25.620Z,4.68
2018-03-29T08:32:28.108Z,12.70
2018-03-29T08:33:31.338Z,7.07
2018-03-29T08:34:34.609Z,8.40
2018-03-29T08:35:37.130Z,2.75
2018-03-29T08:36:39.740Z,21.35
2018-03-29T08:37:42.979Z,7.22
2018-03-29T08:38:46.247Z,21.90
2018-03-29T08:39:48.743Z,13.45
2018-03-29T08:40:51.204Z,3.87
2018-03-29T08:41:53.667Z,3.50
2018-03-29T08:42:56.125Z,3.10
2018-03-29T08:43:59.398Z,3.55
2018-03-29T08:45:01.894Z,2.92
2018-03-29T08:46:05.133Z,7.80
2018-03-29T08:47:08.362Z,9.05
2018-03-29T08:48:10.834Z,3.10
2018-03-29T08:49:13.554Z,3.42
2018-03-29T08:50:16.869Z,2.70
2018-03-29T08:51:20.141Z,2.80
2018-03-29T08:52:23.511Z,5.60
2018-03-29T08:53:26.016Z,2.80
2018-03-29T08:54:28.505Z,2.65
2018-03-29T08:55:31.754Z,2.87
2018-03-29T08:56:34.996Z,2.80
2018-03-29T08:57:38.236Z,4.15
2018-03-29T08:58:40.877Z,5.25
2018-03-29T08:59:44.170Z,3.03
2018-03-29T09:00:46.631Z,2.92
2018-03-29T09:01:49.867Z,2.67
2018-03-29T09:02:52.310Z,3.03
2018-03-29T09:03:55.545Z,2.72
2018-03-29T09:04:58.807Z,7.12
2018-03-29T09:06:01.283Z,3.33
2018-03-29T09:07:03.744Z,4.35
2018-03-29T09:08:07.019Z,3.90
2018-03-29T09:09:09.518Z,3.70
2018-03-29T09:10:12.086Z,5.90
2018-03-29T09:11:14.549Z,3.97
2018-03-29T09:12:17.769Z,5.05
2018-03-29T09:13:20.341Z,6.32
2018-03-29T09:14:22.800Z,3.45
2018-03-29T09:15:25.338Z,2.80
2018-03-29T09:16:27.796Z,13.93
2018-03-29T09:17:31.036Z,5.03
2018-03-29T09:18:34.285Z,8.45
2018-03-29T09:19:37.572Z,5.75
2018-03-29T09:20:40.203Z,3.80
2018-03-29T09:21:42.661Z,9.57
2018-03-29T09:22:45.235Z,3.83
2018-03-29T09:23:47.768Z,3.20
2018-03-29T09:24:52.798Z,4.10
2018-03-29T09:25:55.368Z,5.57
2018-03-29T09:26:57.855Z,3.17
2018-03-29T09:28:00.412Z,4.12
2018-03-29T09:29:02.996Z,3.55
2018-03-29T09:30:05.463Z,3.60
2018-03-29T09:31:07.969Z,4.37
2018-03-29T09:32:11.208Z,3.75
2018-03-29T09:33:13.719Z,4.55
2018-03-29T09:34:17.081Z,3.50
2018-03-29T09:35:20.335Z,3.90
2018-03-29T09:36:22.927Z,3.90
2018-03-29T09:37:26.074Z,4.00
2018-03-29T09:38:28.598Z,3.33
2018-03-29T09:39:31.064Z,3.80
2018-03-29T09:40:33.562Z,3.20
2018-03-29T09:41:36.876Z,3.25
2018-03-29T09:42:39.388Z,3.12
2018-03-29T09:43:41.845Z,4.18
2018-03-29T09:44:44.317Z,3.05
2018-03-29T09:45:46.833Z,2.97
2018-03-29T09:46:49.325Z,2.85
2018-03-29T09:47:51.850Z,3.03
2018-03-29T09:48:54.368Z,3.28
2018-03-29T09:49:56.849Z,2.92
2018-03-29T09:51:00.043Z,3.15
2018-03-29T09:52:02.578Z,2.95
2018-03-29T09:53:05.868Z,3.33
2018-03-29T09:54:08.331Z,3.05
2018-03-29T09:55:10.795Z,3.40
2018-03-29T09:56:13.337Z,3.50
2018-03-29T09:57:15.868Z,3.15
2018-03-29T09:58:18.347Z,3.00
2018-03-29T09:59:21.609Z,3.22
2018-03-29T10:00:29.677Z,3.30
2018-03-29T10:01:33.944Z,3.00
2018-03-29T10:02:36.458Z,3.25
2018-03-29T10:03:39.715Z,3.80
2018-03-29T10:04:42.214Z,3.45
2018-03-29T10:05:46.244Z,3.50
2018-03-29T10:06:48.722Z,3.60
2018-03-29T10:07:51.232Z,3.50
2018-03-29T10:08:54.494Z,3.25
2018-03-29T10:09:57.038Z,3.08
2018-03-29T10:10:59.507Z,3.75
2018-03-29T10:12:02.006Z,3.90
2018-03-29T10:13:04.493Z,3.20
2018-03-29T10:14:07.024Z,3.50
2018-03-29T10:15:09.529Z,3.50
2018-03-29T10:16:12.078Z,3.30
2018-03-29T10:17:14.659Z,3.72
2018-03-29T10:18:17.143Z,3.78
2018-03-29T10:19:19.589Z,3.10
2018-03-29T10:20:22.183Z,3.62
2018-03-29T10:21:24.722Z,3.25
2018-03-29T10:22:27.550Z,3.55
2018-03-29T10:23:30.523Z,3.33
2018-03-29T10:24:33.000Z,3.20
2018-03-29T10:25:35.455Z,3.42
2018-03-29T10:26:37.952Z,3.58
2018-03-29T10:27:40.480Z,3.65
2018-03-29T10:28:42.988Z,3.00
2018-03-29T10:29:45.447Z,3.30
2018-03-29T10:30:47.939Z,3.33
2018-03-29T10:31:51.841Z,3.40
2018-03-29T10:32:54.387Z,3.30
2018-03-29T10:33:56.946Z,2.95
2018-03-29T10:34:59.419Z,2.72
2018-03-29T10:36:01.916Z,2.92
2018-03-29T10:37:04.399Z,2.90
2018-03-29T10:38:07.617Z,3.08
2018-03-29T10:39:10.115Z,2.83
2018-03-29T10:40:12.729Z,2.55
2018-03-29T10:41:15.190Z,3.17
2018-03-29T10:42:17.775Z,3.20
2018-03-29T10:43:20.245Z,3.00
2018-03-29T10:44:22.761Z,3.05
2018-03-29T10:45:25.254Z,2.67
2018-03-29T10:46:27.740Z,2.85
2018-03-29T10:47:30.750Z,3.12
2018-03-29T10:48:33.245Z,3.10
2018-03-29T10:49:35.789Z,3.00
2018-03-29T10:50:38.282Z,2.50
2018-03-29T10:51:43.326Z,2.45
2018-03-29T10:52:45.816Z,2.67
2018-03-29T10:53:48.314Z,3.28
2018-03-29T10:54:50.780Z,2.90
2018-03-29T10:55:53.317Z,2.65
2018-03-29T10:56:55.790Z,2.40
2018-03-29T10:57:58.277Z,2.65
2018-03-29T10:59:00.686Z,1.90
2018-03-29T11:00:03.183Z,3.00
2018-03-29T11:01:05.693Z,2.85
2018-03-29T11:02:08.163Z,3.03
2018-03-29T11:03:11.507Z,3.10
2018-03-29T11:04:14.022Z,3.30
2018-03-29T11:05:16.486Z,3.50
2018-03-29T11:06:19.762Z,2.90
2018-03-29T11:07:22.347Z,3.12
2018-03-29T11:08:25.014Z,3.45
2018-03-29T11:09:27.480Z,3.20
2018-03-29T11:10:29.944Z,2.95
2018-03-29T11:11:33.177Z,2.90
2018-03-29T11:12:36.421Z,2.50
2018-03-29T11:13:39.659Z,2.10
2018-03-29T11:14:43.750Z,2.60
2018-03-29T11:15:46.482Z,2.90
2018-03-29T11:16:48.994Z,2.60
2018-03-29T11:17:52.254Z,2.85
2018-03-29T11:18:54.728Z,2.20
2018-03-29T11:19:58.700Z,4.25
2018-03-29T11:21:01.155Z,4.45
2018-03-29T11:22:03.623Z,4.10
2018-03-29T11:23:06.208Z,5.75
2018-03-29T11:24:08.662Z,3.40
2018-03-29T11:25:11.178Z,5.95
2018-03-29T11:26:13.639Z,4.97
2018-03-29T11:27:16.087Z,3.60
2018-03-29T11:28:19.373Z,2.97
2018-03-29T11:29:21.805Z,3.42
2018-03-29T11:30:24.266Z,4.60
2018-03-29T11:31:26.727Z,4.75
2018-03-29T11:32:29.202Z,3.10
2018-03-29T11:33:31.750Z,2.78
2018-03-29T11:34:34.153Z,3.05
2018-03-29T11:35:36.618Z,2.70
2018-03-29T11:36:39.102Z,3.50
2018-03-29T11:37:41.561Z,3.20
2018-03-29T11:38:45.774Z,4.20
2018-03-29T11:39:48.201Z,3.58
2018-03-29T11:40:50.672Z,2.85
2018-03-29T11:41:53.928Z,3.60
2018-03-29T11:42:56.422Z,4.93
2018-03-29T11:43:58.901Z,2.90
2018-03-29T11:45:01.381Z,2.92
2018-03-29T11:46:04.653Z,2.60
2018-03-29T11:47:07.117Z,2.53
2018-03-29T11:48:09.586Z,4.07
2018-03-29T11:49:14.630Z,3.00
2018-03-29T11:50:17.101Z,2.83
2018-03-29T11:51:19.592Z,2.87
2018-03-29T11:52:22.163Z,2.62
2018-03-29T11:53:24.668Z,2.92
2018-03-29T11:54:27.159Z,3.10
2018-03-29T11:55:29.619Z,3.20
2018-03-29T11:56:32.156Z,3.30
2018-03-29T11:57:35.454Z,3.00
2018-03-29T11:58:38.709Z,3.20
2018-03-29T11:59:42.009Z,3.25
2018-03-29T12:00:44.964Z,3.47
2018-03-29T12:01:47.446Z,3.30
2018-03-29T12:02:49.950Z,3.22
2018-03-29T12:03:53.191Z,3.20
2018-03-29T12:04:56.475Z,3.28
2018-03-29T12:05:59.318Z,3.30
2018-03-29T12:07:01.913Z,3.10
2018-03-29T12:08:04.405Z,2.95
2018-03-29T12:09:06.888Z,3.00
2018-03-29T12:10:09.369Z,3.08
2018-03-29T12:11:12.632Z,2.85
2018-03-29T12:12:15.167Z,3.50
2018-03-29T12:13:17.710Z,3.97
2018-03-29T12:14:23.088Z,3.17
2018-03-29T12:15:26.150Z,3.72
2018-03-29T12:16:28.639Z,3.65
2018-03-29T12:17:31.881Z,3.47
2018-03-29T12:18:34.442Z,3.50
2018-03-29T12:19:36.905Z,3.15
2018-03-29T12:20:40.140Z,3.75
2018-03-29T12:21:43.138Z,3.25
2018-03-29T12:22:45.681Z,3.60
2018-03-29T12:23:48.154Z,3.03
2018-03-29T12:24:52.042Z,3.45
2018-03-29T12:25:54.516Z,3.50
2018-03-29T12:26:56.989Z,3.70
2018-03-29T12:27:59.462Z,3.15
2018-03-29T12:29:01.948Z,3.05
2018-03-29T12:30:05.929Z,3.80
2018-03-29T12:31:08.448Z,3.87
2018-03-29T12:32:10.909Z,3.53
2018-03-29T12:33:16.317Z,3.10
2018-03-29T12:34:19.049Z,3.33
2018-03-29T12:35:21.569Z,3.37
2018-03-29T12:36:24.051Z,3.03
2018-03-29T12:37:26.552Z,3.00
2018-03-29T12:38:29.147Z,3.37
2018-03-29T12:39:31.654Z,3.70
2018-03-29T12:40:34.102Z,3.67
2018-03-29T12:41:36.579Z,2.80
2018-03-29T12:42:39.050Z,3.30
2018-03-29T12:43:42.247Z,3.35
2018-03-29T12:44:44.732Z,3.00
2018-03-29T12:45:47.220Z,2.90
2018-03-29T12:46:49.750Z,3.17
2018-03-29T12:47:54.628Z,3.30
2018-03-29T12:48:57.857Z,2.97
2018-03-29T12:50:02.013Z,3.60
2018-03-29T12:51:04.613Z,2.97
2018-03-29T12:52:08.013Z,3.00
2018-03-29T12:53:11.261Z,3.35
2018-03-29T12:54:14.566Z,3.80
2018-03-29T12:55:28.909Z,4.40
2018-03-29T12:56:43.402Z,7.95
2018-03-29T12:59:24.160Z,4.53
2018-03-29T13:00:26.637Z,5.93
2018-03-29T13:01:29.146Z,9.63
2018-03-29T13:02:32.335Z,4.10
2018-03-29T13:03:34.810Z,19.58
2018-03-29T13:04:37.311Z,5.40
2018-03-29T13:05:39.883Z,12.15
2018-03-29T13:06:42.401Z,6.65
2018-03-29T13:07:45.215Z,9.13
2018-03-29T13:08:47.757Z,5.85
2018-03-29T13:09:50.218Z,7.10
2018-03-29T13:10:52.780Z,3.85
2018-03-29T13:11:55.243Z,4.03
2018-03-29T13:12:57.783Z,4.20
2018-03-29T13:14:00.259Z,4.55
2018-03-29T13:15:02.750Z,5.90
2018-03-29T13:16:05.208Z,5.18
2018-03-29T13:17:07.666Z,5.37
2018-03-29T13:18:10.124Z,4.40
2018-03-29T13:19:12.597Z,4.85
2018-03-29T13:20:15.176Z,5.20
2018-03-29T13:21:17.608Z,4.25
2018-03-29T13:22:20.871Z,4.60
2018-03-29T13:23:23.466Z,5.57
2018-03-29T13:24:26.766Z,4.70
2018-03-29T13:25:29.219Z,5.05
2018-03-29T13:26:31.735Z,5.32
2018-03-29T13:27:34.194Z,7.22
2018-03-29T13:28:37.466Z,5.65
2018-03-29T13:29:40.703Z,7.15
2018-03-29T13:30:43.176Z,7.57
2018-03-29T13:31:45.640Z,8.52
2018-03-29T13:32:49.041Z,8.73
2018-03-29T13:33:51.547Z,13.95
2018-03-29T13:34:54.038Z,9.30
2018-03-29T13:35:56.570Z,9.57
2018-03-29T13:36:59.054Z,18.62
2018-03-29T13:38:01.747Z,10.43
2018-03-29T13:39:04.220Z,7.30
2018-03-29T13:40:06.684Z,6.55
2018-03-29T13:41:09.176Z,17.30
2018-03-29T13:42:12.439Z,7.03
2018-03-29T13:43:14.901Z,6.40
2018-03-29T13:44:17.383Z,9.10
2018-03-29T13:45:19.864Z,7.87
2018-03-29T13:46:22.366Z,13.80
2018-03-29T13:47:24.841Z,15.95
2018-03-29T13:48:28.087Z,6.60